Time;durP1;ratioP1;P1;durP2;ratioP2;P2;SDS_P1;SDS_P2;PMS_P1;PMS_P2;Temp;Humidity;BMP_temperature;BMP_pressure;BME280_temperature;BME280_humidity;BME280_pressure;Samples;Min_cycle;Max_cycle;Signal;HPM_P1;HPM_P2
2022/07/07 00:00:38;;;;;;;;;;;;;;;22.10;51.82;100924.31;2092452;28;994;-46
2022/07/07 00:01:39;;;;;;;;;;;;;;;22.05;51.49;100921.81;2092470;28;748;-47
2022/07/07 00:02:39;;;;;;;;;;;;;;;22.00;51.27;100923.78;2092430;28;764;-48
2022/07/07 00:03:39;;;;;;;;;;;;;;;21.98;50.94;100921.13;2092473;28;753;-46
2022/07/07 00:04:39;;;;;;;;;;;;;;;22.01;50.63;100922.84;2090983;28;880;-50
2022/07/07 00:05:39;;;;;;;;;;;;;;;22.01;50.80;100925.56;2084164;28;1252;-47
2022/07/07 00:06:39;;;;;;;;;;;;;;;22.02;50.35;100925.47;2084133;28;1034;-47
2022/07/07 00:07:40;;;;;;;;;;;;;;;22.05;49.85;100922.66;2084130;28;765;-48
2022/07/07 00:08:40;;;;;;;;;;;;;;;22.05;49.82;100919.09;2084128;28;851;-48
2022/07/07 00:09:40;;;;;;;;;;;;;;;22.05;50.67;100929.91;2083728;28;1025;-49
2022/07/07 00:10:40;;;;;;;;;;;;;;;22.01;49.99;100931.81;2083555;28;883;-48
2022/07/07 00:11:40;;;;;;;;;;;;;;;21.97;50.93;100924.78;2084088;28;796;-47
2022/07/07 00:12:40;;;;;;;;;;;;;;;21.99;50.22;100925.59;2084001;28;1910;-47
2022/07/07 00:13:41;;;;;;;;;;;;;;;21.98;50.46;100926.53;2084058;28;1022;-48
2022/07/07 00:14:41;;;;;;;;;;;;;;;21.96;50.88;100924.84;2087676;28;1542;-48
2022/07/07 00:15:45;;;;;;;;;;;;;;;21.95;50.43;100934.72;2091183;28;821;-47
2022/07/07 00:16:45;;;;;;;;;;;;;;;21.92;50.40;100933.06;2092359;28;898;-47
2022/07/07 00:17:45;;;;;;;;;;;;;;;21.90;50.51;100929.53;2092327;28;802;-47
2022/07/07 00:18:45;;;;;;;;;;;;;;;21.91;50.47;100931.28;2092300;28;839;-47
2022/07/07 00:19:46;;;;;;;;;;;;;;;21.89;50.71;100929.56;2092267;28;985;-47
2022/07/07 00:20:46;;;;;;;;;;;;;;;21.93;50.57;100925.81;2085527;28;1044;-47
2022/07/07 00:21:46;;;;;;;;;;;;;;;21.95;51.17;100929.34;2083996;28;1041;-47
2022/07/07 00:22:46;;;;;;;;;;;;;;;21.93;50.77;100920.44;2084008;28;913;-48
2022/07/07 00:23:46;;;;;;;;;;;;;;;22.03;51.13;100924.53;2083986;28;860;-48
2022/07/07 00:24:46;;;;;;;;;;;;;;;22.10;50.52;100927.00;2083957;28;788;-48
2022/07/07 00:25:46;;;;;;;;;;;;;;;22.13;50.60;100926.88;2088392;28;843;-48
2022/07/07 00:26:47;;;;;;;;;;;;;;;22.15;50.80;100925.00;2092231;28;965;-48
2022/07/07 00:27:47;;;;;;;;;;;;;;;22.11;51.04;100928.75;2092323;28;796;-48
2022/07/07 00:28:48;;;;;;;;;;;;;;;22.10;50.99;100932.41;2092248;28;748;-47
2022/07/07 00:29:48;;;;;;;;;;;;;;;22.05;51.11;100932.59;2092167;28;1449;-47
2022/07/07 00:30:48;;;;;;;;;;;;;;;21.99;51.67;100928.28;2087144;28;833;-47
2022/07/07 00:31:48;;;;;;;;;;;;;;;21.97;51.56;100930.16;2083925;28;780;-46
2022/07/07 00:32:49;;;;;;;;;;;;;;;21.97;51.73;100930.16;2083987;28;1965;-47
2022/07/07 00:33:49;;;;;;;;;;;;;;;21.96;52.38;100922.16;2083975;28;843;-47
2022/07/07 00:34:49;;;;;;;;;;;;;;;21.88;51.74;100925.13;2083956;28;892;-48
2022/07/07 00:35:50;;;;;;;;;;;;;;;21.94;52.09;100924.88;2082829;28;1081;-46
2022/07/07 00:36:50;;;;;;;;;;;;;;;21.90;52.29;100923.25;2083878;28;651;-47
2022/07/07 00:37:50;;;;;;;;;;;;;;;21.95;51.69;100923.94;2083874;28;815;-48
2022/07/07 00:38:50;;;;;;;;;;;;;;;22.00;51.98;100921.97;2083183;28;1046;-50
2022/07/07 00:39:50;;;;;;;;;;;;;;;21.99;51.98;100931.00;2083350;28;831;-49
2022/07/07 00:40:51;;;;;;;;;;;;;;;22.05;51.92;100917.28;2083570;28;904;-48
2022/07/07 00:41:51;;;;;;;;;;;;;;;22.06;51.98;100913.63;2091651;28;1036;-47
2022/07/07 00:42:52;;;;;;;;;;;;;;;22.03;51.66;100913.75;2092123;28;855;-49
2022/07/07 00:43:52;;;;;;;;;;;;;;;22.00;51.59;100913.88;2092216;28;698;-48
2022/07/07 00:44:52;;;;;;;;;;;;;;;22.02;51.44;100908.44;2092120;28;882;-47
2022/07/07 00:45:52;;;;;;;;;;;;;;;22.00;51.67;100913.88;2092093;28;986;-47
2022/07/07 00:46:54;;;;;;;;;;;;;;;21.98;51.70;100909.47;2084277;28;889;-49
2022/07/07 00:47:54;;;;;;;;;;;;;;;21.93;51.84;100909.63;2083827;28;820;-47
2022/07/07 00:48:54;;;;;;;;;;;;;;;21.95;50.95;100910.47;2083786;28;884;-46
2022/07/07 00:49:55;;;;;;;;;;;;;;;21.98;51.05;100910.34;2083837;28;907;-48
2022/07/07 00:50:55;;;;;;;;;;;;;;;21.99;50.81;100906.72;2083748;28;847;-47
2022/07/07 00:51:55;;;;;;;;;;;;;;;21.98;50.31;100907.66;2083338;28;970;-47
2022/07/07 00:52:55;;;;;;;;;;;;;;;22.01;50.35;100907.53;2083707;28;1890;-49
2022/07/07 00:53:55;;;;;;;;;;;;;;;22.08;50.41;100908.16;2083772;28;1092;-48
2022/07/07 00:54:57;;;;;;;;;;;;;;;22.11;50.57;100907.19;2083745;28;1017;-48
2022/07/07 00:55:57;;;;;;;;;;;;;;;22.12;50.70;100896.31;2083219;28;1236;-49
2022/07/07 00:56:57;;;;;;;;;;;;;;;22.09;50.57;100899.13;2082085;28;994;-47
2022/07/07 00:57:57;;;;;;;;;;;;;;;22.09;50.68;100903.66;2083553;28;1070;-48
2022/07/07 00:58:59;;;;;;;;;;;;;;;22.05;50.26;100900.22;2083836;28;779;-47
2022/07/07 01:00:03;;;;;;;;;;;;;;;22.04;50.36;100902.03;2083745;28;890;-48
2022/07/07 01:01:04;;;;;;;;;;;;;;;22.01;50.48;100894.06;2083739;28;800;-47
2022/07/07 01:02:04;;;;;;;;;;;;;;;22.00;49.97;100891.44;2084205;28;1033;-49
2022/07/07 01:03:04;;;;;;;;;;;;;;;21.97;50.74;100887.00;2091676;28;829;-46
2022/07/07 01:04:06;;;;;;;;;;;;;;;21.91;50.71;100895.34;2091924;28;862;-48
2022/07/07 01:05:08;;;;;;;;;;;;;;;21.96;50.48;100892.47;2091971;28;795;-48
2022/07/07 01:06:08;;;;;;;;;;;;;;;22.04;50.39;100895.75;2091953;28;828;-47
2022/07/07 01:07:08;;;;;;;;;;;;;;;22.03;50.64;100886.78;2091935;28;898;-48
2022/07/07 01:08:10;;;;;;;;;;;;;;;22.01;50.56;100893.19;2083327;28;880;-49
2022/07/07 01:09:10;;;;;;;;;;;;;;;22.03;50.34;100892.16;2083719;28;858;-49
2022/07/07 01:10:11;;;;;;;;;;;;;;;22.02;50.16;100893.09;2083609;28;795;-47
2022/07/07 01:11:11;;;;;;;;;;;;;;;21.95;50.58;100894.28;2083665;28;945;-47
2022/07/07 01:12:11;;;;;;;;;;;;;;;22.00;50.10;100894.97;2082968;28;1553;-48
2022/07/07 01:13:12;;;;;;;;;;;;;;;21.99;50.45;100892.38;2083742;28;1910;-47
2022/07/07 01:14:12;;;;;;;;;;;;;;;21.97;50.92;100895.09;2083586;28;982;-48
2022/07/07 01:15:13;;;;;;;;;;;;;;;21.89;50.77;100894.50;2083616;28;858;-48
2022/07/07 01:16:13;;;;;;;;;;;;;;;21.89;50.66;100889.13;2083587;28;1002;-48
2022/07/07 01:17:13;;;;;;;;;;;;;;;21.89;51.29;100891.81;2083539;28;1033;-47
2022/07/07 01:18:13;;;;;;;;;;;;;;;21.91;51.05;100893.53;2084365;28;941;-47
2022/07/07 01:19:14;;;;;;;;;;;;;;;21.88;51.06;100899.03;2083527;28;974;-48
2022/07/07 01:20:14;;;;;;;;;;;;;;;21.94;51.05;100894.34;2083592;28;843;-47
2022/07/07 01:21:18;;;;;;;;;;;;;;;21.86;51.10;100889.22;2083565;28;843;-47
2022/07/07 01:22:19;;;;;;;;;;;;;;;21.95;51.11;100899.66;2083580;28;879;-47
2022/07/07 01:23:20;;;;;;;;;;;;;;;21.97;50.73;100900.50;2083513;28;988;-48
2022/07/07 01:24:21;;;;;;;;;;;;;;;22.01;50.99;100888.66;2083178;28;1017;-47
2022/07/07 01:25:21;;;;;;;;;;;;;;;22.05;51.44;100894.81;2083531;28;803;-48
2022/07/07 01:26:21;;;;;;;;;;;;;;;22.09;50.90;100900.97;2083539;28;979;-47
2022/07/07 01:27:22;;;;;;;;;;;;;;;22.04;51.04;100891.22;2083490;28;902;-48
2022/07/07 01:28:22;;;;;;;;;;;;;;;22.02;51.68;100903.91;2083524;28;827;-48
2022/07/07 01:29:22;;;;;;;;;;;;;;;22.03;51.46;100889.47;2082428;28;863;-47
2022/07/07 01:30:23;;;;;;;;;;;;;;;22.04;51.05;100893.06;2083556;28;973;-46
2022/07/07 01:31:24;;;;;;;;;;;;;;;22.00;51.81;100888.72;2083551;28;1065;-48
2022/07/07 01:32:25;;;;;;;;;;;;;;;21.98;51.74;100890.59;2083449;28;788;-47
2022/07/07 01:33:25;;;;;;;;;;;;;;;21.92;52.08;100895.28;2083387;28;1989;-47
2022/07/07 01:34:25;;;;;;;;;;;;;;;21.91;52.48;100896.22;2085062;28;905;-47
2022/07/07 01:35:25;;;;;;;;;;;;;;;21.90;52.34;100891.78;2091690;28;924;-47
2022/07/07 01:36:25;;;;;;;;;;;;;;;21.86;52.72;100890.13;2091722;28;799;-47
2022/07/07 01:37:26;;;;;;;;;;;;;;;21.94;52.86;100889.81;2091677;28;874;-46
2022/07/07 01:38:26;;;;;;;;;;;;;;;21.99;52.71;100890.53;2091721;28;1024;-48
2022/07/07 01:39:26;;;;;;;;;;;;;;;22.03;53.23;100881.38;2091677;28;992;-47
2022/07/07 01:40:26;;;;;;;;;;;;;;;22.06;53.52;100883.09;2083673;28;886;-47
2022/07/07 01:41:26;;;;;;;;;;;;;;;22.05;53.31;100878.63;2083425;28;867;-47
2022/07/07 01:42:27;;;;;;;;;;;;;;;22.09;52.91;100884.78;2083396;28;871;-49
2022/07/07 01:43:27;;;;;;;;;;;;;;;22.04;53.69;100883.13;2083428;28;934;-49
2022/07/07 01:44:29;;;;;;;;;;;;;;;22.02;54.01;100892.25;2083355;28;970;-47
2022/07/07 01:45:29;;;;;;;;;;;;;;;22.01;54.11;100890.50;2083095;28;1156;-47
2022/07/07 01:46:31;;;;;;;;;;;;;;;21.98;54.61;100867.19;2083366;28;977;-47
2022/07/07 01:47:31;;;;;;;;;;;;;;;21.98;54.55;100871.72;2083370;28;838;-47
2022/07/07 01:48:32;;;;;;;;;;;;;;;21.96;54.80;100881.69;2083304;28;850;-47
2022/07/07 01:49:33;;;;;;;;;;;;;;;22.02;54.85;100874.22;2082948;28;847;-47
2022/07/07 01:50:33;;;;;;;;;;;;;;;22.02;54.91;100873.38;2083435;28;1032;-46
2022/07/07 01:51:33;;;;;;;;;;;;;;;22.00;55.36;100876.09;2091072;28;1020;-47
2022/07/07 01:52:35;;;;;;;;;;;;;;;21.96;55.24;100871.75;2091574;28;666;-48
2022/07/07 01:53:35;;;;;;;;;;;;;;;22.00;55.13;100876.09;2091537;28;1977;-49
2022/07/07 01:54:35;;;;;;;;;;;;;;;22.09;55.35;100879.38;2091605;28;771;-47
2022/07/07 01:55:36;;;;;;;;;;;;;;;22.10;54.96;100883.84;2091543;28;1309;-47
2022/07/07 01:56:36;;;;;;;;;;;;;;;22.06;55.72;100878.56;2085853;28;977;-47
2022/07/07 01:57:37;;;;;;;;;;;;;;;22.13;55.03;100881.03;2083142;28;1101;-48
2022/07/07 01:58:37;;;;;;;;;;;;;;;22.12;55.27;100880.13;2083348;28;866;-47
2022/07/07 01:59:37;;;;;;;;;;;;;;;22.04;55.64;100885.84;2083273;28;979;-47
2022/07/07 02:00:38;;;;;;;;;;;;;;;22.03;55.94;100875.13;2083264;28;768;-48
2022/07/07 02:01:38;;;;;;;;;;;;;;;22.01;55.66;100868.91;2084347;28;897;-48
2022/07/07 02:02:38;;;;;;;;;;;;;;;21.98;55.98;100872.59;2091564;28;760;-47
2022/07/07 02:03:38;;;;;;;;;;;;;;;22.00;55.73;100869.84;2091520;28;1042;-47
2022/07/07 02:04:38;;;;;;;;;;;;;;;21.99;55.71;100870.78;2091495;28;1068;-48
2022/07/07 02:05:39;;;;;;;;;;;;;;;21.98;55.77;100866.31;2091486;28;997;-48
2022/07/07 02:06:39;;;;;;;;;;;;;;;22.01;55.13;100869.78;2091459;28;874;-48
2022/07/07 02:07:39;;;;;;;;;;;;;;;21.99;55.06;100866.25;2088585;28;1062;-48
2022/07/07 02:08:39;;;;;;;;;;;;;;;22.04;54.75;100866.09;2091504;28;989;-48
2022/07/07 02:09:40;;;;;;;;;;;;;;;22.02;55.07;100865.28;2091478;28;1075;-49
2022/07/07 02:11:59;;;;;;;;;;;;;;;21.96;54.17;100868.22;2091480;28;614;-47
2022/07/07 02:12:59;;;;;;;;;;;;;;;21.93;54.45;100869.19;2085570;28;1906;-47
2022/07/07 02:13:59;;;;;;;;;;;;;;;21.93;53.64;100866.50;2083230;28;1013;-48
2022/07/07 02:14:59;;;;;;;;;;;;;;;21.90;53.50;100867.50;2083206;28;807;-47
2022/07/07 02:16:00;;;;;;;;;;;;;;;21.90;53.17;100867.50;2083194;28;863;-47
2022/07/07 02:17:00;;;;;;;;;;;;;;;21.88;53.44;100865.78;2083180;28;851;-47
2022/07/07 02:18:00;;;;;;;;;;;;;;;21.91;52.91;100869.25;2083358;28;989;-47
2022/07/07 02:19:02;;;;;;;;;;;;;;;21.87;52.29;100864.03;2090151;28;938;-48
2022/07/07 02:20:02;;;;;;;;;;;;;;;21.89;52.49;100863.03;2091431;28;799;-47
2022/07/07 02:21:03;;;;;;;;;;;;;;;21.90;51.54;100861.22;2091530;28;764;-47
2022/07/07 02:22:04;;;;;;;;;;;;;;;21.87;51.63;100864.91;2091323;28;962;-47
2022/07/07 02:23:04;;;;;;;;;;;;;;;21.87;51.78;100867.63;2091377;28;795;-49
2022/07/07 02:24:04;;;;;;;;;;;;;;;21.94;51.73;100859.28;2087001;28;989;-48
2022/07/07 02:25:04;;;;;;;;;;;;;;;21.98;50.93;100863.63;2083101;28;930;-47
2022/07/07 02:26:05;;;;;;;;;;;;;;;21.94;50.74;100859.28;2083107;28;993;-48
2022/07/07 02:27:05;;;;;;;;;;;;;;;21.96;50.42;100858.28;2083150;28;851;-47
2022/07/07 02:28:05;;;;;;;;;;;;;;;21.97;50.72;100860.03;2083145;28;990;-48
2022/07/07 02:29:05;;;;;;;;;;;;;;;21.96;50.37;100863.69;2082942;28;830;-47
2022/07/07 02:30:06;;;;;;;;;;;;;;;21.92;50.54;100860.22;2082874;28;872;-47
2022/07/07 02:31:07;;;;;;;;;;;;;;;21.88;50.45;100868.47;2083141;28;1025;-47
2022/07/07 02:32:07;;;;;;;;;;;;;;;21.84;50.53;100869.53;2083140;28;842;-46
2022/07/07 02:33:08;;;;;;;;;;;;;;;21.83;50.54;100870.47;2083027;28;1961;-48
2022/07/07 02:34:09;;;;;;;;;;;;;;;21.83;50.93;100871.38;2083176;28;827;-47
2022/07/07 02:35:09;;;;;;;;;;;;;;;21.87;50.98;100864.03;2084766;28;1051;-47
2022/07/07 02:36:09;;;;;;;;;;;;;;;21.81;50.73;100869.66;2091339;28;669;-47
2022/07/07 02:37:10;;;;;;;;;;;;;;;21.83;50.46;100867.78;2091320;28;799;-47
2022/07/07 02:38:10;;;;;;;;;;;;;;;21.79;51.32;100864.34;2091344;28;807;-52
2022/07/07 02:39:10;;;;;;;;;;;;;;;21.86;50.58;100864.97;2091328;28;962;-48
2022/07/07 02:40:10;;;;;;;;;;;;;;;21.91;50.70;100866.56;2091382;28;847;-47
2022/07/07 02:41:11;;;;;;;;;;;;;;;21.92;50.96;100860.22;2082853;28;862;-47
2022/07/07 02:42:11;;;;;;;;;;;;;;;21.92;50.49;100862.03;2083094;28;1028;-48
2022/07/07 02:43:12;;;;;;;;;;;;;;;21.92;50.70;100856.63;2083055;28;769;-49
2022/07/07 02:44:12;;;;;;;;;;;;;;;21.90;50.78;100858.50;2083255;28;772;-47
2022/07/07 02:45:13;;;;;;;;;;;;;;;21.90;51.14;100858.50;2083054;28;666;-47
2022/07/07 02:46:13;;;;;;;;;;;;;;;21.85;51.20;100855.13;2083235;28;889;-48
2022/07/07 02:47:13;;;;;;;;;;;;;;;21.83;51.09;100851.59;2083115;28;832;-47
2022/07/07 02:48:14;;;;;;;;;;;;;;;21.84;51.08;100854.25;2083049;28;784;-47
2022/07/07 02:49:14;;;;;;;;;;;;;;;21.82;51.36;100849.84;2083040;28;883;-48
2022/07/07 02:50:14;;;;;;;;;;;;;;;21.86;51.32;100852.38;2083042;28;993;-47
2022/07/07 02:51:15;;;;;;;;;;;;;;;21.85;51.62;100855.13;2082400;28;856;-47
2022/07/07 02:52:15;;;;;;;;;;;;;;;21.86;51.67;100852.38;2086000;28;847;-47
2022/07/07 02:53:15;;;;;;;;;;;;;;;21.93;51.47;100855.69;2091164;28;1894;-49
2022/07/07 02:54:17;;;;;;;;;;;;;;;21.96;51.72;100852.88;2091267;28;989;-48
2022/07/07 02:55:17;;;;;;;;;;;;;;;21.96;51.60;100847.50;2090569;28;894;-48
2022/07/07 02:56:17;;;;;;;;;;;;;;;21.97;51.81;100851.09;2090694;28;878;-47
2022/07/07 02:57:17;;;;;;;;;;;;;;;21.92;51.90;100851.25;2090685;28;991;-48
2022/07/07 02:58:22;;;;;;;;;;;;;;;21.95;52.06;100855.66;2082792;28;1226;-47
2022/07/07 02:59:22;;;;;;;;;;;;;;;21.92;52.10;100849.44;2083181;28;870;-47
2022/07/07 03:00:24;;;;;;;;;;;;;;;21.92;52.19;100851.25;2083006;28;757;-47
2022/07/07 03:01:24;;;;;;;;;;;;;;;21.86;52.35;100843.38;2083746;28;835;-46
2022/07/07 03:02:24;;;;;;;;;;;;;;;21.86;52.14;100854.19;2084606;28;705;-47
2022/07/07 03:03:24;;;;;;;;;;;;;;;21.82;52.53;100847.16;2084183;28;1010;-46
2022/07/07 03:04:25;;;;;;;;;;;;;;;21.85;52.75;100852.41;2084633;28;780;-48
2022/07/07 03:05:25;;;;;;;;;;;;;;;21.85;52.43;100849.72;2084575;28;891;-47
2022/07/07 03:06:25;;;;;;;;;;;;;;;21.92;52.38;100856.63;2084586;28;839;-48
2022/07/07 03:07:25;;;;;;;;;;;;;;;21.92;52.37;100852.13;2084575;28;1154;-48
2022/07/07 03:08:25;;;;;;;;;;;;;;;21.94;52.28;100857.47;2084583;28;1040;-49
2022/07/07 03:09:26;;;;;;;;;;;;;;;21.91;51.86;100852.19;2090118;28;830;-49
2022/07/07 03:10:26;;;;;;;;;;;;;;;21.88;52.20;100846.91;2092147;28;918;-47
2022/07/07 03:11:26;;;;;;;;;;;;;;;21.82;52.42;100839.94;2092193;28;1919;-47
2022/07/07 03:12:26;;;;;;;;;;;;;;;21.78;52.63;100838.31;2092790;28;781;-47
2022/07/07 03:13:27;;;;;;;;;;;;;;;21.79;52.31;100844.56;2092732;28;1911;-49
2022/07/07 03:14:27;;;;;;;;;;;;;;;21.76;53.22;100835.69;2091368;28;1044;-47
2022/07/07 03:15:27;;;;;;;;;;;;;;;21.74;53.18;100853.75;2092543;28;873;-47
2022/07/07 03:16:27;;;;;;;;;;;;;;;21.73;52.97;100846.59;2092800;28;977;-47
2022/07/07 03:17:27;;;;;;;;;;;;;;;21.75;52.96;100838.41;2092795;28;784;-47
2022/07/07 03:18:27;;;;;;;;;;;;;;;21.74;52.44;100845.66;2092810;28;902;-47
2022/07/07 03:19:27;;;;;;;;;;;;;;;21.74;52.72;100847.44;2092887;28;954;-47
2022/07/07 03:20:28;;;;;;;;;;;;;;;21.71;52.75;100843.06;2091139;28;834;-47
2022/07/07 03:21:28;;;;;;;;;;;;;;;21.76;52.13;100843.78;2092796;28;1036;-47
2022/07/07 03:22:28;;;;;;;;;;;;;;;21.76;52.18;100841.06;2092785;28;1032;-48
2022/07/07 03:23:28;;;;;;;;;;;;;;;21.80;51.78;100847.22;2092765;28;762;-50
2022/07/07 03:24:29;;;;;;;;;;;;;;;21.83;51.96;100840.81;2092700;28;755;-46
2022/07/07 03:25:29;;;;;;;;;;;;;;;21.86;50.91;100843.38;2092746;28;835;-48
2022/07/07 03:26:30;;;;;;;;;;;;;;;21.91;50.94;100842.28;2085231;28;861;-48
2022/07/07 03:27:30;;;;;;;;;;;;;;;21.90;51.03;100845.03;2084456;28;827;-48
2022/07/07 03:28:30;;;;;;;;;;;;;;;21.91;50.85;100845.00;2084435;28;998;-48
2022/07/07 03:29:30;;;;;;;;;;;;;;;21.84;50.82;100840.78;2084427;28;768;-49
2022/07/07 03:30:30;;;;;;;;;;;;;;;21.84;50.44;100839.88;2084440;28;867;-47
2022/07/07 03:31:30;;;;;;;;;;;;;;;21.84;50.76;100848.84;2084567;28;1031;-47
2022/07/07 03:32:31;;;;;;;;;;;;;;;21.82;50.52;100850.72;2083964;28;983;-47
2022/07/07 03:33:31;;;;;;;;;;;;;;;21.81;49.83;100840.00;2084360;28;1894;-47
2022/07/07 03:34:31;;;;;;;;;;;;;;;21.80;49.83;100843.63;2084386;28;867;-47
2022/07/07 03:35:31;;;;;;;;;;;;;;;21.76;50.06;100849.16;2084406;28;1060;-46
2022/07/07 03:36:31;;;;;;;;;;;;;;;21.77;49.76;100853.63;2084384;28;1037;-47
2022/07/07 03:37:33;;;;;;;;;;;;;;;21.77;49.72;100852.72;2085166;28;837;-47
2022/07/07 03:38:33;;;;;;;;;;;;;;;21.82;50.01;100855.22;2084522;28;736;-48
2022/07/07 03:39:33;;;;;;;;;;;;;;;21.87;49.41;100846.03;2084317;28;855;-47
2022/07/07 03:40:34;;;;;;;;;;;;;;;21.86;49.83;100843.38;2084347;28;787;-48
2022/07/07 03:41:34;;;;;;;;;;;;;;;21.89;49.34;100846.88;2084341;28;807;-48
2022/07/07 03:42:36;;;;;;;;;;;;;;;21.88;49.34;100849.59;2084314;28;962;-49
2022/07/07 03:43:36;;;;;;;;;;;;;;;21.89;49.82;100845.97;2084072;28;988;-48
2022/07/07 03:44:36;;;;;;;;;;;;;;;21.89;49.44;100848.66;2084306;28;907;-47
2022/07/07 03:45:36;;;;;;;;;;;;;;;21.86;50.20;100851.47;2084301;28;969;-47
2022/07/07 03:46:36;;;;;;;;;;;;;;;21.85;49.66;100847.91;2084228;28;1054;-48
2022/07/07 03:47:37;;;;;;;;;;;;;;;21.83;50.11;100852.50;2084298;28;1064;-46
2022/07/07 03:48:37;;;;;;;;;;;;;;;21.81;50.38;100848.09;2084361;28;807;-46
2022/07/07 03:49:37;;;;;;;;;;;;;;;21.80;50.47;100847.22;2083840;28;982;-48
2022/07/07 03:50:37;;;;;;;;;;;;;;;21.84;50.34;100845.28;2084274;28;942;-47
2022/07/07 03:51:38;;;;;;;;;;;;;;;21.80;50.58;100854.41;2084251;28;1045;-48
2022/07/07 03:52:38;;;;;;;;;;;;;;;21.84;50.18;100853.34;2084265;28;883;-48
2022/07/07 03:53:38;;;;;;;;;;;;;;;21.88;50.16;100850.50;2084145;28;1886;-48
2022/07/07 03:54:38;;;;;;;;;;;;;;;21.90;50.63;100854.03;2084160;28;903;-49
2022/07/07 03:55:38;;;;;;;;;;;;;;;21.95;49.99;100851.13;2091101;28;1346;-48
2022/07/07 03:56:39;;;;;;;;;;;;;;;21.95;50.21;100847.56;2092455;28;819;-48
2022/07/07 03:57:41;;;;;;;;;;;;;;;21.95;50.81;100856.53;2092343;28;1173;-48
2022/07/07 03:58:41;;;;;;;;;;;;;;;21.96;50.28;100846.63;2092498;28;795;-47
2022/07/07 03:59:41;;;;;;;;;;;;;;;21.90;50.98;100855.81;2092463;28;1029;-46
2022/07/07 04:00:42;;;;;;;;;;;;;;;21.81;50.83;100856.16;2090020;28;857;-47
2022/07/07 04:01:44;;;;;;;;;;;;;;;21.83;50.99;100857.88;2091907;28;981;-47
2022/07/07 04:02:45;;;;;;;;;;;;;;;22.30;49.78;100850.66;2092465;28;823;-47
2022/07/07 04:03:45;;;;;;;;;;;;;;;22.80;48.55;100850.41;2092436;28;989;-47
2022/07/07 04:04:45;;;;;;;;;;;;;;;23.00;48.26;100850.47;2092483;28;768;-47
2022/07/07 04:05:45;;;;;;;;;;;;;;;23.11;48.34;100850.91;2092452;28;742;-47
2022/07/07 04:06:45;;;;;;;;;;;;;;;23.17;47.86;100845.22;2088682;28;872;-48
2022/07/07 04:07:45;;;;;;;;;;;;;;;23.26;47.38;100851.22;2084128;28;1025;-48
2022/07/07 04:08:46;;;;;;;;;;;;;;;23.37;47.52;100857.00;2084149;28;796;-49
2022/07/07 04:09:46;;;;;;;;;;;;;;;23.43;47.70;100853.13;2084130;28;831;-48
2022/07/07 04:10:46;;;;;;;;;;;;;;;23.48;47.52;100856.50;2084082;28;994;-48
2022/07/07 04:11:46;;;;;;;;;;;;;;;23.51;47.91;100851.88;2083923;28;776;-47
2022/07/07 04:12:46;;;;;;;;;;;;;;;23.56;48.05;100854.34;2087144;28;2337;-49
2022/07/07 04:13:46;;;;;;;;;;;;;;;23.60;47.68;100860.47;2092347;28;997;-49
2022/07/07 04:14:47;;;;;;;;;;;;;;;23.63;47.64;100855.81;2092391;28;751;-46
2022/07/07 04:15:47;;;;;;;;;;;;;;;23.67;47.64;100843.03;2092315;28;879;-47
2022/07/07 04:16:47;;;;;;;;;;;;;;;23.71;47.94;100843.78;2092352;28;1036;-47
2022/07/07 04:17:47;;;;;;;;;;;;;;;23.71;48.02;100846.47;2092313;28;985;-48
2022/07/07 04:18:47;;;;;;;;;;;;;;;23.77;48.34;100847.06;2090632;28;826;-47
2022/07/07 04:19:47;;;;;;;;;;;;;;;23.81;48.55;100839.69;2092434;28;894;-47
2022/07/07 04:20:48;;;;;;;;;;;;;;;23.84;48.60;100847.66;2092283;28;1033;-47
2022/07/07 04:21:48;;;;;;;;;;;;;;;23.87;48.83;100843.91;2092345;28;787;-47
2022/07/07 04:22:48;;;;;;;;;;;;;;;23.91;48.94;100846.41;2092272;28;985;-48
2022/07/07 04:23:48;;;;;;;;;;;;;;;23.91;49.19;100838.28;2092293;28;831;-49
2022/07/07 04:24:49;;;;;;;;;;;;;;;23.87;49.03;100843.91;2086031;28;1056;-47
2022/07/07 04:25:49;;;;;;;;;;;;;;;23.84;50.42;100843.13;2084015;28;777;-47
2022/07/07 04:26:49;;;;;;;;;;;;;;;23.82;50.39;100850.44;2083990;28;753;-47
2022/07/07 04:27:50;;;;;;;;;;;;;;;23.83;49.99;100845.91;2083946;28;860;-48
2022/07/07 04:28:50;;;;;;;;;;;;;;;23.81;50.49;100848.66;2083987;28;832;-47
2022/07/07 04:29:50;;;;;;;;;;;;;;;23.88;50.46;100843.84;2083947;28;1017;-47
2022/07/07 04:30:50;;;;;;;;;;;;;;;23.89;49.54;100852.84;2090218;28;1053;-46
2022/07/07 04:31:50;;;;;;;;;;;;;;;23.91;50.84;100838.28;2092231;28;760;-47
2022/07/07 04:32:50;;;;;;;;;;;;;;;23.89;50.70;100845.59;2092138;28;1955;-47
2022/07/07 04:33:50;;;;;;;;;;;;;;;23.94;50.44;100843.53;2092214;28;1061;-48
2022/07/07 04:34:51;;;;;;;;;;;;;;;23.93;51.00;100843.63;2092241;28;772;-47
2022/07/07 04:35:51;;;;;;;;;;;;;;;23.94;50.74;100848.09;2092175;28;918;-47
2022/07/07 04:36:51;;;;;;;;;;;;;;;23.95;50.72;100844.44;2083426;28;953;-47
2022/07/07 04:37:51;;;;;;;;;;;;;;;23.98;50.75;100847.91;2083930;28;797;-49
2022/07/07 04:38:51;;;;;;;;;;;;;;;23.95;51.42;100844.44;2083909;28;768;-49
2022/07/07 04:39:51;;;;;;;;;;;;;;;23.94;51.66;100846.25;2083240;28;906;-47
2022/07/07 04:40:52;;;;;;;;;;;;;;;23.95;51.65;100837.19;2083317;28;911;-48
2022/07/07 04:41:52;;;;;;;;;;;;;;;23.97;51.39;100842.53;2083840;28;895;-47
2022/07/07 04:42:52;;;;;;;;;;;;;;;23.95;51.16;100845.31;2084196;28;993;-50
2022/07/07 04:43:52;;;;;;;;;;;;;;;23.96;51.49;100841.66;2083855;28;1149;-47
2022/07/07 04:44:53;;;;;;;;;;;;;;;23.97;51.29;100839.84;2083874;28;823;-47
2022/07/07 04:45:53;;;;;;;;;;;;;;;24.00;51.22;100846.94;2083828;28;856;-47
2022/07/07 04:46:53;;;;;;;;;;;;;;;23.98;50.86;100849.72;2083119;28;951;-48
2022/07/07 04:47:53;;;;;;;;;;;;;;;24.01;50.01;100837.88;2083357;28;1033;-49
2022/07/07 04:48:53;;;;;;;;;;;;;;;23.98;50.40;100842.47;2083996;28;999;-47
2022/07/07 04:49:53;;;;;;;;;;;;;;;23.95;50.14;100842.59;2083816;28;996;-47
2022/07/07 04:50:53;;;;;;;;;;;;;;;24.04;49.58;100840.44;2083785;28;846;-47
2022/07/07 04:51:54;;;;;;;;;;;;;;;24.04;48.59;100844.03;2083767;28;926;-47
2022/07/07 04:52:54;;;;;;;;;;;;;;;24.04;48.80;100848.56;2083711;28;1886;-50
2022/07/07 04:53:54;;;;;;;;;;;;;;;23.95;49.02;100845.31;2083257;28;1350;-49
2022/07/07 04:54:56;;;;;;;;;;;;;;;23.93;48.16;100847.19;2090828;28;1039;-47
2022/07/07 04:55:56;;;;;;;;;;;;;;;23.96;47.92;100843.50;2092052;28;807;-47
2022/07/07 04:56:57;;;;;;;;;;;;;;;23.99;47.42;100846.09;2091981;28;816;-48
2022/07/07 04:57:57;;;;;;;;;;;;;;;23.92;47.45;100845.44;2091728;28;1149;-49
2022/07/07 04:58:57;;;;;;;;;;;;;;;23.97;46.91;100845.25;2092056;28;1012;-47
2022/07/07 04:59:57;;;;;;;;;;;;;;;23.98;47.15;100847.00;2090254;28;907;-47
2022/07/07 05:00:57;;;;;;;;;;;;;;;23.91;46.80;100846.41;2091401;28;1040;-46
2022/07/07 05:01:57;;;;;;;;;;;;;;;23.90;46.64;100847.34;2091976;28;713;-48
2022/07/07 05:02:57;;;;;;;;;;;;;;;23.93;46.76;100847.19;2091983;28;748;-47
2022/07/07 05:03:58;;;;;;;;;;;;;;;23.91;47.32;100854.50;2091940;28;1025;-47
2022/07/07 05:04:58;;;;;;;;;;;;;;;23.93;46.20;100854.47;2091951;28;962;-49
2022/07/07 05:05:58;;;;;;;;;;;;;;;23.88;46.80;100848.38;2090649;28;906;-49
2022/07/07 05:06:58;;;;;;;;;;;;;;;23.90;46.23;100857.31;2090812;28;856;-48
2022/07/07 05:07:58;;;;;;;;;;;;;;;23.90;46.08;100854.59;2091939;28;821;-48
2022/07/07 05:08:59;;;;;;;;;;;;;;;23.89;46.49;100847.44;2091940;28;1032;-48
2022/07/07 05:09:59;;;;;;;;;;;;;;;23.92;45.68;100848.16;2091943;28;813;-47
2022/07/07 05:10:59;;;;;;;;;;;;;;;23.96;46.09;100847.06;2091882;28;981;-47
2022/07/07 05:11:59;;;;;;;;;;;;;;;23.94;45.80;100853.50;2090775;28;1040;-47
2022/07/07 05:12:59;;;;;;;;;;;;;;;24.00;46.16;100852.34;2091313;28;1914;-47
2022/07/07 05:14:00;;;;;;;;;;;;;;;24.01;45.93;100849.59;2091914;28;781;-47
2022/07/07 05:15:00;;;;;;;;;;;;;;;23.98;46.21;100849.72;2091905;28;822;-47
2022/07/07 05:16:00;;;;;;;;;;;;;;;23.98;46.51;100849.72;2091890;28;771;-47
2022/07/07 05:17:01;;;;;;;;;;;;;;;24.08;45.26;100851.06;2091864;28;905;-47
2022/07/07 05:18:01;;;;;;;;;;;;;;;24.10;45.95;100846.44;2090728;28;901;-49
2022/07/07 05:19:01;;;;;;;;;;;;;;;24.12;45.67;100847.25;2082991;28;986;-46